createdAt,value
2019-04-25T00:00:07.409Z,14.30
2019-04-25T00:01:07.921Z,14.30
2019-04-25T00:02:07.416Z,14.30
2019-04-25T00:03:07.977Z,14.30
2019-04-25T00:04:11.715Z,14.20
2019-04-25T00:05:04.929Z,14.30
2019-04-25T00:06:05.385Z,14.20
2019-04-25T00:07:05.527Z,14.20
2019-04-25T00:08:04.681Z,14.20
2019-04-25T00:09:04.842Z,14.20
2019-04-25T00:10:07.654Z,14.20
2019-04-25T00:11:04.701Z,14.10
2019-04-25T00:12:07.355Z,14.10
2019-04-25T00:13:07.850Z,14.10
2019-04-25T00:14:07.376Z,14.10
2019-04-25T00:15:05.337Z,14.10
2019-04-25T00:16:11.596Z,14.10
2019-04-25T00:17:04.733Z,14.10
2019-04-25T00:18:07.339Z,14.00
2019-04-25T00:19:07.917Z,14.00
2019-04-25T00:20:14.958Z,14.00
2019-04-25T00:21:04.988Z,14.00
2019-04-25T00:22:05.119Z,13.90
2019-04-25T00:23:07.785Z,13.90
2019-04-25T00:24:04.824Z,13.80
2019-04-25T00:25:14.906Z,13.90
2019-04-25T00:26:04.731Z,13.90
2019-04-25T00:27:04.972Z,13.70
2019-04-25T00:28:07.637Z,13.80
2019-04-25T00:29:08.186Z,13.80
2019-04-25T00:30:05.162Z,13.80
2019-04-25T00:31:05.334Z,13.80
2019-04-25T00:32:05.482Z,13.80
2019-04-25T00:33:05.681Z,13.80
2019-04-25T00:34:10.061Z,13.80
2019-04-25T00:35:04.874Z,13.80
2019-04-25T00:36:05.033Z,13.80
2019-04-25T00:37:05.210Z,13.80
2019-04-25T00:38:08.066Z,13.80
2019-04-25T00:39:07.744Z,13.80
2019-04-25T00:40:04.946Z,13.80
2019-04-25T00:41:05.260Z,13.80
2019-04-25T00:42:07.935Z,13.80
2019-04-25T00:43:07.618Z,13.80
2019-04-25T00:44:05.605Z,13.80
2019-04-25T00:45:05.621Z,13.80
2019-04-25T00:46:07.229Z,13.80
2019-04-25T00:47:05.256Z,13.70
2019-04-25T00:48:05.314Z,13.70
2019-04-25T00:49:04.953Z,13.70
2019-04-25T00:50:07.587Z,13.60
2019-04-25T00:51:08.092Z,13.70
2019-04-25T00:52:07.729Z,13.60
2019-04-25T00:53:07.278Z,13.60
2019-04-25T00:54:04.768Z,13.60
2019-04-25T00:55:05.068Z,13.60
2019-04-25T00:56:04.952Z,13.60
2019-04-25T00:57:05.216Z,13.60
2019-04-25T00:58:05.588Z,13.60
2019-04-25T00:59:04.806Z,13.60
2019-04-25T01:00:07.543Z,13.50
2019-04-25T01:01:05.670Z,13.50
2019-04-25T01:02:07.527Z,13.50
2019-04-25T01:03:07.351Z,13.50
2019-04-25T01:04:05.367Z,13.50
2019-04-25T01:05:08.161Z,13.50
2019-04-25T01:06:07.776Z,13.50
2019-04-25T01:07:04.849Z,13.40
2019-04-25T01:08:07.652Z,13.40
2019-04-25T01:09:05.734Z,13.40
2019-04-25T01:10:11.514Z,13.30
2019-04-25T01:11:04.945Z,13.30
2019-04-25T01:12:07.706Z,13.20
2019-04-25T01:13:04.676Z,13.20
2019-04-25T01:14:04.779Z,13.20
2019-04-25T01:15:04.979Z,13.20
2019-04-25T01:16:07.607Z,13.10
2019-04-25T01:17:04.741Z,13.10
2019-04-25T01:18:05.027Z,13.00
2019-04-25T01:19:05.312Z,13.10
2019-04-25T01:20:05.527Z,13.00
2019-04-25T01:21:05.746Z,13.00
2019-04-25T01:22:10.225Z,12.90
2019-04-25T01:23:05.186Z,13.00
2019-04-25T01:24:05.468Z,12.90
2019-04-25T01:25:07.325Z,12.80
2019-04-25T01:26:05.340Z,12.80
2019-04-25T01:27:05.348Z,12.80
2019-04-25T01:28:08.180Z,12.80
2019-04-25T01:29:07.769Z,12.70
2019-04-25T01:30:06.097Z,12.80
2019-04-25T01:31:05.712Z,12.70
2019-04-25T01:32:08.136Z,12.60
2019-04-25T01:33:05.332Z,12.60
2019-04-25T01:34:05.709Z,12.60
2019-04-25T01:35:07.405Z,12.40
2019-04-25T01:36:05.351Z,12.40
2019-04-25T01:37:05.560Z,12.40
2019-04-25T01:38:04.712Z,12.40
2019-04-25T01:39:07.514Z,12.20
2019-04-25T01:40:08.195Z,12.20
2019-04-25T01:41:05.211Z,12.20
2019-04-25T01:42:05.411Z,12.20
2019-04-25T01:43:05.638Z,12.10
2019-04-25T01:44:07.577Z,12.10
2019-04-25T01:45:05.164Z,12.10
2019-04-25T01:46:14.830Z,12.00
2019-04-25T01:47:05.016Z,12.10
2019-04-25T01:48:07.816Z,12.00
2019-04-25T01:49:04.945Z,12.00
2019-04-25T01:50:07.737Z,12.00
2019-04-25T01:51:09.935Z,12.00
2019-04-25T01:52:07.634Z,11.90
2019-04-25T01:53:05.631Z,12.00
2019-04-25T01:54:04.820Z,11.90
2019-04-25T01:55:10.038Z,11.90
2019-04-25T01:56:07.200Z,11.90
2019-04-25T01:57:04.976Z,11.90
2019-04-25T01:58:05.123Z,11.80
2019-04-25T01:59:05.315Z,11.80
2019-04-25T02:00:08.089Z,11.70
2019-04-25T02:01:05.119Z,11.80
2019-04-25T02:02:06.652Z,11.70
2019-04-25T02:03:04.913Z,11.70
2019-04-25T02:04:05.003Z,11.70
2019-04-25T02:05:05.197Z,11.70
2019-04-25T02:06:05.353Z,11.70
2019-04-25T02:07:04.757Z,11.70
2019-04-25T02:08:06.868Z,11.70
2019-04-25T02:09:05.329Z,11.70
2019-04-25T02:10:05.815Z,11.70
2019-04-25T02:11:05.056Z,11.60
2019-04-25T02:12:07.818Z,11.60
2019-04-25T02:13:04.797Z,11.60
2019-04-25T02:14:05.291Z,11.60
2019-04-25T02:15:06.127Z,11.60
2019-04-25T02:16:05.424Z,11.60
2019-04-25T02:17:05.606Z,11.60
2019-04-25T02:18:07.707Z,11.60
2019-04-25T02:19:07.264Z,11.60
2019-04-25T02:20:07.844Z,11.60
2019-04-25T02:21:04.785Z,11.60
2019-04-25T02:22:07.654Z,11.60
2019-04-25T02:23:05.789Z,11.60
2019-04-25T02:24:07.659Z,11.60
2019-04-25T02:25:04.841Z,11.60
2019-04-25T02:26:15.126Z,11.60
2019-04-25T02:27:08.033Z,11.60
2019-04-25T02:28:05.651Z,11.60
2019-04-25T02:29:04.918Z,11.50
2019-04-25T02:30:10.297Z,11.50
2019-04-25T02:31:08.519Z,11.50
2019-04-25T02:32:08.709Z,11.50
2019-04-25T02:33:08.539Z,11.40
2019-04-25T02:34:08.305Z,11.40
2019-04-25T02:35:09.043Z,11.40
2019-04-25T02:36:08.512Z,11.40
2019-04-25T02:37:09.020Z,11.40
2019-04-25T02:38:08.616Z,11.40
2019-04-25T02:39:08.788Z,11.30
2019-04-25T02:40:07.639Z,11.30
2019-04-25T02:41:07.022Z,11.30
2019-04-25T02:42:07.834Z,11.30
2019-04-25T02:43:07.896Z,11.30
2019-04-25T02:44:08.408Z,11.30
2019-04-25T02:45:08.628Z,11.20
2019-04-25T02:46:07.396Z,11.20
2019-04-25T02:47:07.909Z,11.20
2019-04-25T02:48:06.885Z,11.20
2019-04-25T02:49:08.789Z,11.20
2019-04-25T02:50:07.466Z,11.20
2019-04-25T02:51:07.149Z,11.20
2019-04-25T02:52:12.997Z,11.10
2019-04-25T02:53:05.987Z,11.10
2019-04-25T02:54:07.603Z,11.10
2019-04-25T02:55:10.254Z,11.10
2019-04-25T02:56:25.956Z,11.00
2019-04-25T02:57:06.920Z,11.00
2019-04-25T02:58:14.069Z,11.00
2019-04-25T02:59:07.413Z,11.00
2019-04-25T03:00:07.461Z,11.00
2019-04-25T03:01:16.129Z,10.90
2019-04-25T03:02:05.629Z,10.90
2019-04-25T03:03:07.206Z,11.00
2019-04-25T03:04:09.465Z,10.90
2019-04-25T03:05:07.767Z,10.90
2019-04-25T03:06:07.123Z,10.90
2019-04-25T03:07:07.985Z,10.90
2019-04-25T03:08:08.417Z,10.90
2019-04-25T03:09:06.398Z,10.80
2019-04-25T03:10:07.670Z,10.90
2019-04-25T03:11:06.406Z,10.80
2019-04-25T03:12:07.344Z,10.80
2019-04-25T03:13:10.102Z,10.80
2019-04-25T03:14:08.053Z,10.80
2019-04-25T03:15:06.970Z,10.80
2019-04-25T03:16:07.488Z,10.70
2019-04-25T03:17:06.858Z,10.70
2019-04-25T03:18:18.338Z,10.70
2019-04-25T03:19:07.596Z,10.70
2019-04-25T03:20:07.890Z,10.70
2019-04-25T03:21:10.004Z,10.70
2019-04-25T03:22:11.478Z,10.70
2019-04-25T03:23:06.931Z,10.70
2019-04-25T03:24:10.091Z,10.70
2019-04-25T03:25:08.719Z,10.70
2019-04-25T03:26:06.196Z,10.70
2019-04-25T03:27:06.145Z,10.70
2019-04-25T03:28:06.085Z,10.60
2019-04-25T03:29:05.876Z,10.60
2019-04-25T03:30:09.469Z,10.60
2019-04-25T03:31:11.123Z,10.60
2019-04-25T03:32:09.753Z,10.60
2019-04-25T03:33:09.392Z,10.60
2019-04-25T03:34:13.552Z,10.50
2019-04-25T03:35:05.857Z,10.50
2019-04-25T03:36:05.556Z,10.50
2019-04-25T03:37:06.231Z,10.50
2019-04-25T03:38:06.376Z,10.50
2019-04-25T03:39:10.749Z,10.40
2019-04-25T03:40:06.322Z,10.50
2019-04-25T03:41:06.106Z,10.50
2019-04-25T03:42:05.358Z,10.50
2019-04-25T03:43:06.017Z,10.50
2019-04-25T03:44:05.614Z,10.50
2019-04-25T03:45:06.044Z,10.50
2019-04-25T03:46:05.922Z,10.50
2019-04-25T03:47:06.137Z,10.50
2019-04-25T03:48:10.408Z,10.40
2019-04-25T03:49:06.039Z,10.40
2019-04-25T03:50:06.060Z,10.40
2019-04-25T03:51:05.702Z,10.40
2019-04-25T03:52:05.524Z,10.40
2019-04-25T03:53:05.677Z,10.40
2019-04-25T03:54:14.226Z,10.30
2019-04-25T03:55:07.389Z,10.30
2019-04-25T03:56:06.353Z,10.40
2019-04-25T03:57:06.607Z,10.30
2019-04-25T03:58:07.928Z,10.30
2019-04-25T03:59:06.072Z,10.30
2019-04-25T04:00:06.241Z,10.20
2019-04-25T04:01:15.031Z,10.20
2019-04-25T04:02:06.590Z,10.20
2019-04-25T04:03:06.432Z,10.20
2019-04-25T04:04:13.691Z,10.20
2019-04-25T04:05:06.900Z,10.20
2019-04-25T04:06:07.196Z,10.20
2019-04-25T04:07:09.606Z,10.20
2019-04-25T04:08:15.842Z,10.10
2019-04-25T04:09:06.472Z,10.10
2019-04-25T04:10:10.128Z,10.10
2019-04-25T04:11:07.315Z,10.10
2019-04-25T04:12:06.319Z,10.10
2019-04-25T04:13:07.122Z,10.10
2019-04-25T04:14:05.823Z,10.10
2019-04-25T04:15:05.741Z,10.10
2019-04-25T04:16:05.272Z,10.10
2019-04-25T04:17:06.664Z,10.00
2019-04-25T04:18:06.242Z,10.00
2019-04-25T04:19:05.994Z,10.00
2019-04-25T04:20:07.681Z,10.00
2019-04-25T04:21:05.731Z,10.00
2019-04-25T04:22:05.578Z,10.00
2019-04-25T04:23:07.376Z,9.90
2019-04-25T04:24:08.287Z,9.90
2019-04-25T04:25:06.002Z,9.90
2019-04-25T04:26:06.207Z,9.90
2019-04-25T04:27:06.893Z,9.90
2019-04-25T04:28:06.119Z,9.90
2019-04-25T04:29:05.802Z,9.90
2019-04-25T04:30:06.463Z,9.90
2019-04-25T04:31:10.209Z,10.00
2019-04-25T04:32:06.183Z,10.00
2019-04-25T04:33:21.389Z,10.00
2019-04-25T04:34:06.321Z,10.00
2019-04-25T04:35:05.060Z,10.00
2019-04-25T04:36:05.221Z,10.00
2019-04-25T04:37:08.961Z,10.00
2019-04-25T04:38:05.137Z,9.90
2019-04-25T04:39:05.307Z,10.00
2019-04-25T04:40:08.130Z,10.00
2019-04-25T04:41:05.410Z,9.90
2019-04-25T04:42:05.692Z,10.00
2019-04-25T04:43:05.077Z,10.00
2019-04-25T04:44:05.408Z,10.10
2019-04-25T04:45:10.814Z,10.20
2019-04-25T04:46:05.261Z,10.20
2019-04-25T04:47:05.588Z,10.30
2019-04-25T04:48:08.099Z,10.70
2019-04-25T04:49:04.735Z,10.70
2019-04-25T04:50:05.021Z,10.80
2019-04-25T04:51:15.750Z,11.30
2019-04-25T04:52:06.446Z,11.30
2019-04-25T04:53:04.764Z,11.50
2019-04-25T04:54:05.591Z,11.80
2019-04-25T04:55:08.488Z,12.00
2019-04-25T04:56:05.226Z,12.20
2019-04-25T04:57:17.434Z,12.50
2019-04-25T04:58:04.823Z,12.70
2019-04-25T04:59:07.540Z,13.20
2019-04-25T05:00:05.595Z,13.30
2019-04-25T05:01:04.708Z,13.50
2019-04-25T05:02:10.625Z,13.90
2019-04-25T05:03:05.459Z,14.00
2019-04-25T05:04:05.214Z,14.20
2019-04-25T05:05:10.594Z,14.40
2019-04-25T05:06:05.296Z,14.40
2019-04-25T05:07:05.595Z,14.50
2019-04-25T05:08:04.895Z,14.70
2019-04-25T05:09:08.132Z,14.90
2019-04-25T05:10:05.246Z,14.90
2019-04-25T05:11:07.400Z,15.10
2019-04-25T05:12:07.874Z,15.20
2019-04-25T05:13:07.473Z,15.30
2019-04-25T05:14:08.242Z,15.40
2019-04-25T05:15:05.384Z,15.40
2019-04-25T05:16:11.142Z,15.60
2019-04-25T05:17:05.908Z,15.70
2019-04-25T05:18:05.239Z,15.80
2019-04-25T05:19:10.017Z,15.90
2019-04-25T05:20:05.111Z,15.90
2019-04-25T05:21:05.586Z,16.00
2019-04-25T05:22:04.787Z,16.10
2019-04-25T05:23:05.638Z,16.10
2019-04-25T05:24:04.919Z,16.20
2019-04-25T05:25:05.286Z,16.40
2019-04-25T05:26:08.146Z,16.60
2019-04-25T05:27:05.209Z,16.60
2019-04-25T05:28:05.434Z,16.70
2019-04-25T05:29:07.682Z,16.90
2019-04-25T05:30:04.786Z,16.90
2019-04-25T05:31:04.974Z,17.00
2019-04-25T05:32:07.716Z,17.10
2019-04-25T05:33:07.425Z,17.10
2019-04-25T05:34:07.116Z,17.10
2019-04-25T05:35:05.361Z,17.20
2019-04-25T05:36:05.871Z,17.20
2019-04-25T05:37:07.762Z,17.20
2019-04-25T05:38:07.454Z,17.20
2019-04-25T05:39:05.569Z,17.20
2019-04-25T05:40:05.590Z,17.20
2019-04-25T05:41:05.070Z,17.20
2019-04-25T05:42:07.461Z,17.20
2019-04-25T05:43:04.861Z,17.10
2019-04-25T05:44:05.314Z,17.10
2019-04-25T05:45:08.365Z,17.00
2019-04-25T05:46:08.030Z,16.90
2019-04-25T05:47:05.032Z,16.90
2019-04-25T05:48:05.982Z,16.90
2019-04-25T05:49:05.344Z,16.80
2019-04-25T05:50:08.172Z,16.70
2019-04-25T05:51:05.494Z,16.70
2019-04-25T05:52:05.721Z,16.60
2019-04-25T05:53:10.116Z,16.60
2019-04-25T05:54:05.218Z,16.60
2019-04-25T05:55:05.627Z,16.60
2019-04-25T05:56:07.287Z,16.60
2019-04-25T05:57:05.412Z,16.60
2019-04-25T05:58:08.199Z,16.80
2019-04-25T05:59:05.588Z,16.80
2019-04-25T06:00:08.356Z,16.90
2019-04-25T06:01:05.688Z,16.90
2019-04-25T06:02:07.541Z,17.10
2019-04-25T06:03:05.686Z,17.10
2019-04-25T06:04:05.351Z,17.30
2019-04-25T06:05:09.931Z,17.60
2019-04-25T06:06:08.019Z,17.70
2019-04-25T06:07:05.652Z,17.80
2019-04-25T06:08:04.985Z,17.90
2019-04-25T06:09:07.918Z,18.20
2019-04-25T06:10:04.922Z,18.20
2019-04-25T06:11:05.107Z,18.30
2019-04-25T06:12:07.743Z,18.40
2019-04-25T06:13:04.768Z,18.50
2019-04-25T06:14:04.921Z,18.60
2019-04-25T06:15:05.405Z,18.60
2019-04-25T06:16:08.267Z,18.80
2019-04-25T06:17:07.958Z,19.00
2019-04-25T06:18:07.641Z,19.10
2019-04-25T06:19:13.841Z,19.30
2019-04-25T06:20:06.225Z,19.20
2019-04-25T06:21:05.474Z,19.30
2019-04-25T06:22:05.837Z,19.50
2019-04-25T06:23:05.116Z,19.60
2019-04-25T06:24:07.882Z,20.00
2019-04-25T06:25:09.329Z,19.90
2019-04-25T06:26:18.807Z,20.10
2019-04-25T06:27:05.099Z,20.30
2019-04-25T06:28:05.304Z,20.30
2019-04-25T06:29:08.046Z,20.50
2019-04-25T06:30:05.052Z,20.50
2019-04-25T06:31:09.948Z,20.50
2019-04-25T06:32:08.474Z,20.60
2019-04-25T06:33:05.155Z,20.60
2019-04-25T06:34:10.516Z,20.60
2019-04-25T06:35:04.998Z,20.60
2019-04-25T06:36:05.295Z,20.60
2019-04-25T06:37:06.150Z,20.60
2019-04-25T06:38:05.599Z,20.60
2019-04-25T06:39:08.113Z,20.60
2019-04-25T06:40:07.133Z,20.50
2019-04-25T06:41:05.621Z,20.50
2019-04-25T06:42:07.386Z,20.50
2019-04-25T06:43:05.570Z,20.50
2019-04-25T06:44:04.999Z,20.50
2019-04-25T06:45:05.252Z,20.40
2019-04-25T06:46:05.587Z,20.40
2019-04-25T06:47:07.433Z,20.30
2019-04-25T06:48:10.720Z,20.40
2019-04-25T06:49:04.893Z,20.30
2019-04-25T06:50:05.067Z,20.30
2019-04-25T06:51:07.814Z,20.30
2019-04-25T06:52:04.882Z,20.30
2019-04-25T06:53:05.257Z,20.30
2019-04-25T06:54:07.594Z,20.30
2019-04-25T06:55:05.006Z,20.20
2019-04-25T06:56:07.918Z,20.10
2019-04-25T06:57:07.490Z,20.10
2019-04-25T06:58:11.485Z,20.10
2019-04-25T06:59:07.992Z,20.20
2019-04-25T07:00:05.108Z,20.20
2019-04-25T07:01:05.281Z,20.30
2019-04-25T07:02:05.149Z,20.40
2019-04-25T07:03:08.006Z,20.60
2019-04-25T07:04:07.775Z,20.60
2019-04-25T07:05:07.465Z,20.70
2019-04-25T07:06:14.549Z,20.70
2019-04-25T07:07:11.820Z,20.70
2019-04-25T07:08:04.814Z,20.80
2019-04-25T07:09:07.684Z,20.80
2019-04-25T07:10:04.924Z,20.80
2019-04-25T07:11:05.425Z,20.80
2019-04-25T07:12:05.787Z,20.80
2019-04-25T07:13:10.122Z,20.90
2019-04-25T07:14:05.252Z,20.90
2019-04-25T07:15:05.360Z,20.90
2019-04-25T07:16:05.620Z,20.90
2019-04-25T07:17:04.864Z,21.00
2019-04-25T07:18:05.046Z,21.00
2019-04-25T07:19:05.275Z,21.00
2019-04-25T07:20:05.516Z,21.10
2019-04-25T07:21:05.672Z,21.20
2019-04-25T07:22:07.328Z,21.30
2019-04-25T07:23:05.387Z,21.30
2019-04-25T07:24:05.653Z,21.30
2019-04-25T07:25:04.940Z,21.40
2019-04-25T07:26:05.176Z,21.40
2019-04-25T07:27:06.537Z,21.50
2019-04-25T07:28:04.717Z,21.50
2019-04-25T07:29:05.341Z,21.60
2019-04-25T07:30:05.562Z,21.60
2019-04-25T07:31:07.343Z,21.70
2019-04-25T07:32:05.939Z,21.70
2019-04-25T07:33:05.438Z,21.80
2019-04-25T07:34:05.607Z,21.80
2019-04-25T07:35:04.880Z,21.90
2019-04-25T07:36:05.068Z,22.00
2019-04-25T07:37:05.251Z,22.00
2019-04-25T07:38:05.549Z,22.00
2019-04-25T07:39:08.018Z,22.00
2019-04-25T07:40:08.214Z,22.00
2019-04-25T07:41:07.818Z,21.90
2019-04-25T07:42:04.876Z,21.90
2019-04-25T07:43:08.754Z,21.90
2019-04-25T07:44:04.904Z,21.80
2019-04-25T07:45:07.862Z,21.70
2019-04-25T07:46:05.019Z,21.70
2019-04-25T07:47:05.222Z,21.60
2019-04-25T07:48:05.470Z,21.60
2019-04-25T07:49:13.605Z,21.50
2019-04-25T07:50:10.782Z,21.50
2019-04-25T07:51:04.867Z,21.50
2019-04-25T07:52:05.010Z,21.60
2019-04-25T07:53:05.659Z,21.60
2019-04-25T07:54:05.214Z,21.60
2019-04-25T07:55:07.947Z,21.70
2019-04-25T07:56:07.816Z,21.70
2019-04-25T07:57:04.952Z,21.70
2019-04-25T07:58:05.308Z,21.80
2019-04-25T07:59:07.629Z,21.90
2019-04-25T08:00:08.190Z,22.00
2019-04-25T08:01:07.777Z,22.00
2019-04-25T08:02:04.888Z,22.00
2019-04-25T08:03:10.238Z,22.00
2019-04-25T08:04:08.164Z,22.10
2019-04-25T08:05:05.413Z,22.00
2019-04-25T08:06:05.716Z,22.10
2019-04-25T08:07:04.912Z,22.10
2019-04-25T08:08:07.569Z,22.10
2019-04-25T08:09:05.603Z,22.10
2019-04-25T08:10:04.850Z,22.10
2019-04-25T08:11:05.196Z,22.10
2019-04-25T08:12:05.481Z,22.00
2019-04-25T08:13:05.745Z,21.90
2019-04-25T08:14:07.504Z,21.80
2019-04-25T08:15:05.719Z,21.80
2019-04-25T08:16:05.141Z,21.70
2019-04-25T08:17:10.429Z,21.60
2019-04-25T08:18:05.461Z,21.70
2019-04-25T08:19:04.856Z,21.60
2019-04-25T08:20:05.040Z,21.60
2019-04-25T08:21:07.852Z,21.50
2019-04-25T08:22:05.167Z,21.50
2019-04-25T08:23:08.060Z,21.50
2019-04-25T08:24:10.151Z,21.50
2019-04-25T08:25:07.718Z,21.50
2019-04-25T08:26:07.401Z,21.60
2019-04-25T08:27:07.954Z,21.60
2019-04-25T08:28:05.079Z,21.50
2019-04-25T08:29:05.407Z,21.60
2019-04-25T08:30:08.134Z,21.60
2019-04-25T08:31:07.832Z,21.60
2019-04-25T08:32:05.069Z,21.60
2019-04-25T08:33:05.280Z,21.60
2019-04-25T08:34:05.480Z,21.70
2019-04-25T08:35:05.654Z,21.80
2019-04-25T08:36:08.735Z,21.80
2019-04-25T08:37:17.276Z,21.80
2019-04-25T08:38:05.745Z,21.80
2019-04-25T08:39:07.634Z,21.80
2019-04-25T08:40:05.698Z,21.80
2019-04-25T08:41:05.234Z,21.80
2019-04-25T08:42:05.009Z,21.80
2019-04-25T08:43:05.232Z,21.80
2019-04-25T08:44:04.919Z,21.80
2019-04-25T08:45:07.754Z,9.10
2019-04-25T08:46:04.966Z,21.90
2019-04-25T08:47:07.882Z,21.90
2019-04-25T08:48:04.983Z,21.90
2019-04-25T08:49:06.378Z,22.00
2019-04-25T08:50:04.796Z,22.00
2019-04-25T08:51:10.260Z,22.00
2019-04-25T08:52:05.426Z,22.00
2019-04-25T08:53:04.933Z,22.00
2019-04-25T08:54:10.308Z,22.00
2019-04-25T08:55:07.871Z,22.00
2019-04-25T08:56:07.342Z,21.90
2019-04-25T08:57:07.945Z,21.90
2019-04-25T08:58:05.126Z,21.80
2019-04-25T08:59:07.885Z,21.80
2019-04-25T09:00:06.479Z,21.80
2019-04-25T09:01:04.936Z,21.70
2019-04-25T09:02:07.709Z,21.80
2019-04-25T09:03:05.909Z,21.80
2019-04-25T09:04:05.236Z,21.80
2019-04-25T09:05:05.432Z,21.80
2019-04-25T09:06:05.743Z,21.80
2019-04-25T09:07:05.449Z,21.80
2019-04-25T09:08:07.344Z,21.80
2019-04-25T09:09:10.525Z,21.80
2019-04-25T09:10:05.532Z,21.80
2019-04-25T09:11:04.792Z,21.80
2019-04-25T09:12:07.513Z,21.80
2019-04-25T09:13:05.588Z,21.80
2019-04-25T09:14:04.840Z,21.80
2019-04-25T09:15:05.025Z,21.80
2019-04-25T09:16:05.226Z,21.80
2019-04-25T09:17:04.777Z,21.80
2019-04-25T09:18:04.995Z,21.80
2019-04-25T09:19:07.836Z,21.80
2019-04-25T09:20:04.874Z,21.80
2019-04-25T09:21:05.034Z,21.90
2019-04-25T09:22:08.169Z,21.90
2019-04-25T09:23:07.970Z,21.90
2019-04-25T09:24:05.048Z,21.90
2019-04-25T09:25:07.776Z,22.00
2019-04-25T09:26:05.655Z,22.00
2019-04-25T09:27:05.031Z,22.00
2019-04-25T09:28:07.890Z,22.10
2019-04-25T09:29:15.935Z,22.00
2019-04-25T09:30:05.741Z,22.00
2019-04-25T09:31:07.562Z,21.90
2019-04-25T09:32:05.671Z,21.90
2019-04-25T09:33:07.612Z,22.00
2019-04-25T09:34:05.872Z,21.90
2019-04-25T09:35:04.801Z,22.00
2019-04-25T09:36:06.767Z,22.00
2019-04-25T09:37:05.101Z,22.10
2019-04-25T09:38:07.934Z,22.10
2019-04-25T09:39:10.151Z,22.10
2019-04-25T09:40:05.517Z,22.10
2019-04-25T09:41:05.035Z,22.10
2019-04-25T09:42:05.473Z,22.10
2019-04-25T09:43:05.284Z,22.10
2019-04-25T09:44:05.588Z,22.10
2019-04-25T09:45:05.001Z,22.10
2019-04-25T09:46:05.249Z,22.20
2019-04-25T09:47:04.766Z,22.20
2019-04-25T09:48:07.651Z,22.20
2019-04-25T09:49:07.254Z,22.20
2019-04-25T09:50:07.868Z,22.10
2019-04-25T09:51:05.615Z,22.10
2019-04-25T09:52:07.622Z,22.00
2019-04-25T09:53:20.990Z,22.00
2019-04-25T09:54:05.343Z,22.00
2019-04-25T09:55:13.363Z,22.00
2019-04-25T09:56:04.826Z,22.10
2019-04-25T09:57:07.543Z,22.10
2019-04-25T09:58:05.643Z,22.10
2019-04-25T09:59:04.973Z,22.20
2019-04-25T10:00:07.692Z,22.20
2019-04-25T10:01:09.743Z,22.10
2019-04-25T10:02:09.137Z,22.20
2019-04-25T10:03:05.181Z,22.20
2019-04-25T10:04:05.679Z,22.20
2019-04-25T10:05:04.801Z,22.20
2019-04-25T10:06:07.617Z,22.30
2019-04-25T10:07:04.834Z,22.20
2019-04-25T10:08:04.921Z,22.40
2019-04-25T10:09:06.104Z,22.40
2019-04-25T10:10:10.423Z,22.40
2019-04-25T10:11:05.707Z,22.40
2019-04-25T10:12:07.380Z,22.50
2019-04-25T10:13:08.012Z,22.40
2019-04-25T10:14:07.688Z,22.50
2019-04-25T10:15:04.749Z,22.40
2019-04-25T10:16:05.336Z,22.50
2019-04-25T10:17:05.655Z,22.40
2019-04-25T10:18:07.366Z,22.50
2019-04-25T10:19:07.962Z,22.50
2019-04-25T10:20:07.574Z,22.50
2019-04-25T10:21:05.321Z,22.50
2019-04-25T10:22:10.795Z,22.50
2019-04-25T10:23:05.086Z,22.60
2019-04-25T10:24:07.779Z,22.60
2019-04-25T10:25:07.451Z,22.50
2019-04-25T10:26:05.598Z,22.60
2019-04-25T10:27:04.929Z,22.60
2019-04-25T10:28:07.910Z,22.60
2019-04-25T10:29:04.993Z,22.60
2019-04-25T10:30:16.596Z,22.70
2019-04-25T10:31:05.204Z,22.70
2019-04-25T10:32:05.385Z,22.80
2019-04-25T10:33:08.184Z,22.90
2019-04-25T10:34:05.236Z,22.90
2019-04-25T10:35:05.421Z,22.90
2019-04-25T10:36:08.159Z,23.00
2019-04-25T10:37:07.775Z,23.00
2019-04-25T10:38:07.386Z,23.00
2019-04-25T10:39:08.494Z,22.90
2019-04-25T10:40:07.938Z,23.00
2019-04-25T10:41:05.152Z,23.00
2019-04-25T10:42:05.461Z,23.00
2019-04-25T10:43:05.627Z,23.00
2019-04-25T10:44:05.325Z,23.10
2019-04-25T10:45:20.141Z,23.10
2019-04-25T10:46:05.526Z,23.10
2019-04-25T10:47:05.043Z,23.00
2019-04-25T10:48:08.220Z,23.00
2019-04-25T10:49:05.314Z,23.10
2019-04-25T10:50:07.406Z,23.10
2019-04-25T10:51:05.749Z,23.10
2019-04-25T10:52:05.009Z,23.20
2019-04-25T10:53:05.301Z,23.10
2019-04-25T10:54:11.384Z,23.20
2019-04-25T10:55:04.893Z,23.20
2019-04-25T10:56:05.905Z,23.20
2019-04-25T10:57:10.287Z,23.20
2019-04-25T10:58:07.922Z,23.30
2019-04-25T10:59:07.524Z,23.30
2019-04-25T11:00:08.800Z,23.30
2019-04-25T11:01:07.332Z,23.30
2019-04-25T11:02:05.335Z,23.30
2019-04-25T11:03:05.553Z,23.30
2019-04-25T11:04:05.359Z,23.30
2019-04-25T11:05:04.937Z,23.40
2019-04-25T11:06:05.300Z,23.40
2019-04-25T11:07:06.051Z,23.40
2019-04-25T11:08:05.297Z,23.50
2019-04-25T11:09:05.545Z,23.50
2019-04-25T11:10:04.806Z,23.50
2019-04-25T11:11:07.534Z,23.60
2019-04-25T11:12:08.109Z,23.60
2019-04-25T11:13:07.671Z,23.60
2019-04-25T11:14:07.520Z,23.60
2019-04-25T11:15:09.954Z,23.60
2019-04-25T11:16:07.664Z,23.60
2019-04-25T11:17:04.931Z,23.60
2019-04-25T11:18:07.738Z,23.60
2019-04-25T11:19:09.833Z,23.60
2019-04-25T11:20:05.503Z,23.60
2019-04-25T11:21:06.020Z,23.70
2019-04-25T11:22:05.393Z,23.70
2019-04-25T11:23:08.157Z,23.80
2019-04-25T11:24:07.650Z,23.80
2019-04-25T11:25:08.161Z,23.80
2019-04-25T11:26:10.325Z,23.90
2019-04-25T11:27:08.067Z,23.90
2019-04-25T11:28:05.107Z,23.90
2019-04-25T11:29:05.369Z,23.90
2019-04-25T11:30:10.566Z,24.00
2019-04-25T11:31:05.574Z,24.00
2019-04-25T11:32:04.803Z,24.10
2019-04-25T11:33:07.793Z,24.20
2019-04-25T11:34:07.839Z,24.20
2019-04-25T11:35:06.945Z,24.10
2019-04-25T11:36:05.159Z,24.20
2019-04-25T11:37:05.825Z,24.20
2019-04-25T11:38:05.543Z,24.20
2019-04-25T11:39:13.576Z,24.20
2019-04-25T11:40:05.145Z,24.20
2019-04-25T11:41:05.487Z,24.30
2019-04-25T11:42:05.038Z,24.30
2019-04-25T11:43:05.377Z,24.30
2019-04-25T11:44:05.918Z,24.30
2019-04-25T11:45:10.250Z,24.30
2019-04-25T11:46:04.965Z,24.40
2019-04-25T11:47:06.859Z,24.40
2019-04-25T11:48:05.681Z,24.40
2019-04-25T11:49:05.124Z,24.40
2019-04-25T11:50:05.319Z,24.40
2019-04-25T11:51:08.046Z,24.40
2019-04-25T11:52:05.348Z,24.40
2019-04-25T11:53:08.153Z,24.40
2019-04-25T11:54:05.200Z,24.40
2019-04-25T11:55:05.619Z,24.50
2019-04-25T11:56:07.343Z,24.50
2019-04-25T11:57:05.334Z,24.60
2019-04-25T11:58:07.322Z,24.70
2019-04-25T11:59:05.349Z,24.60
2019-04-25T12:00:05.511Z,24.70
2019-04-25T12:01:05.584Z,24.70
2019-04-25T12:02:04.765Z,24.70
2019-04-25T12:03:07.533Z,24.70
2019-04-25T12:04:05.626Z,24.80
2019-04-25T12:05:05.130Z,24.80
2019-04-25T12:06:05.737Z,24.80
2019-04-25T12:07:08.554Z,24.80
2019-04-25T12:08:08.111Z,24.80
2019-04-25T12:09:05.223Z,24.80
2019-04-25T12:10:05.494Z,24.80
2019-04-25T12:11:13.845Z,24.80
2019-04-25T12:12:05.700Z,24.80
2019-04-25T12:13:07.540Z,24.80
2019-04-25T12:14:08.196Z,24.90
2019-04-25T12:15:07.934Z,24.90
2019-04-25T12:16:05.217Z,24.90
2019-04-25T12:17:08.294Z,24.90
2019-04-25T12:18:05.264Z,24.90
2019-04-25T12:19:08.265Z,25.00
2019-04-25T12:20:05.443Z,25.00
2019-04-25T12:21:05.729Z,25.00
2019-04-25T12:22:05.021Z,25.00
2019-04-25T12:23:10.111Z,25.10
2019-04-25T12:24:05.989Z,25.10
2019-04-25T12:25:05.758Z,25.00
2019-04-25T12:26:09.922Z,25.00
2019-04-25T12:27:04.859Z,25.00
2019-04-25T12:28:05.693Z,25.00
2019-04-25T12:29:08.166Z,25.10
2019-04-25T12:30:05.470Z,25.10
2019-04-25T12:31:04.842Z,25.10
2019-04-25T12:32:07.451Z,25.10
2019-04-25T12:33:17.959Z,25.10
2019-04-25T12:34:07.968Z,25.10
2019-04-25T12:35:06.056Z,25.10
2019-04-25T12:36:08.212Z,25.10
2019-04-25T12:37:06.511Z,25.10
2019-04-25T12:38:10.057Z,25.10
2019-04-25T12:39:05.799Z,25.10
2019-04-25T12:40:06.082Z,25.10
2019-04-25T12:41:10.517Z,25.10
2019-04-25T12:42:08.064Z,25.20
2019-04-25T12:43:05.278Z,25.10
2019-04-25T12:44:05.809Z,25.10
2019-04-25T12:45:07.214Z,25.20
2019-04-25T12:46:13.100Z,25.20
2019-04-25T12:47:05.118Z,25.30
2019-04-25T12:48:07.797Z,25.30
2019-04-25T12:49:07.331Z,25.30
2019-04-25T12:50:05.371Z,25.30
2019-04-25T12:51:08.071Z,25.40
2019-04-25T12:52:10.108Z,25.40
2019-04-25T12:53:10.165Z,25.40